Time;durP1;ratioP1;P1;durP2;ratioP2;P2;SDS_P1;SDS_P2;PMS_P1;PMS_P2;Temp;Humidity;BMP_temperature;BMP_pressure;BME280_temperature;BME280_humidity;BME280_pressure;Samples;Min_cycle;Max_cycle;Signal;HPM_P1;HPM_P2
2023/09/22 00:00:36;;;;;;;7.22;2.75;;;14.10;99.90;;;;;;5073743;28;20036;-60
2023/09/22 00:03:04;;;;;;;5.70;2.90;;;14.20;99.90;;;;;;5073761;28;20060;-60
2023/09/22 00:05:30;;;;;;;6.00;2.80;;;14.20;99.90;;;;;;5073673;28;20424;-60
2023/09/22 00:07:56;;;;;;;6.15;3.05;;;14.10;99.90;;;;;;5073732;28;20063;-60
2023/09/22 00:10:21;;;;;;;6.25;3.10;;;14.10;99.90;;;;;;5073293;28;20056;-60
2023/09/22 00:12:47;;;;;;;5.30;2.60;;;14.10;99.90;;;;;;5073410;28;20052;-60
2023/09/22 00:15:13;;;;;;;5.50;2.70;;;14.20;99.90;;;;;;5073492;28;20041;-60
2023/09/22 00:17:39;;;;;;;5.47;2.80;;;14.10;99.90;;;;;;5073622;28;20397;-60
2023/09/22 00:20:13;;;;;;;5.90;2.78;;;14.10;99.90;;;;;;5073346;28;20037;-60
2023/09/22 00:22:39;;;;;;;5.30;2.55;;;14.10;99.90;;;;;;5072119;28;20084;-60
2023/09/22 00:25:05;;;;;;;6.03;2.88;;;14.10;99.90;;;;;;5073197;28;20424;-60
2023/09/22 00:27:30;;;;;;;8.52;2.80;;;14.10;99.90;;;;;;5073004;28;20507;-60
2023/09/22 00:29:56;;;;;;;6.20;2.92;;;14.10;99.90;;;;;;5073293;28;20040;-59
2023/09/22 00:32:22;;;;;;;6.03;2.53;;;14.10;99.90;;;;;;5073198;28;20477;-59
2023/09/22 00:34:47;;;;;;;6.25;3.30;;;14.10;99.90;;;;;;5073072;28;20119;-60
2023/09/22 00:37:13;;;;;;;7.68;3.13;;;14.00;99.90;;;;;;5073034;28;20029;-60
2023/09/22 00:39:39;;;;;;;5.78;2.90;;;14.10;99.90;;;;;;5072936;28;20561;-60
2023/09/22 00:42:09;;;;;;;6.35;2.85;;;14.10;99.90;;;;;;5073083;28;20404;-59
2023/09/22 00:44:35;;;;;;;5.50;2.50;;;14.00;99.90;;;;;;5073107;28;20120;-60
2023/09/22 00:47:07;;;;;;;5.60;2.80;;;14.10;99.90;;;;;;5071527;28;20051;-60
2023/09/22 00:49:35;;;;;;;6.40;3.40;;;14.10;99.90;;;;;;5072767;28;20109;-60
2023/09/22 00:52:04;;;;;;;6.05;2.90;;;14.00;99.90;;;;;;5072936;28;20370;-60
2023/09/22 00:54:31;;;;;;;5.97;2.88;;;14.00;99.90;;;;;;5071600;28;20376;-60
2023/09/22 00:56:57;;;;;;;5.68;2.90;;;14.10;99.90;;;;;;5072556;28;20499;-59
2023/09/22 00:59:23;;;;;;;6.78;3.28;;;14.10;99.90;;;;;;5072433;28;20048;-59
2023/09/22 01:01:49;;;;;;;6.78;3.65;;;14.10;99.90;;;;;;5072763;28;20037;-60
2023/09/22 01:04:15;;;;;;;7.07;3.65;;;14.10;99.90;;;;;;5072730;28;20036;-60
2023/09/22 01:06:43;;;;;;;7.40;3.90;;;14.10;99.90;;;;;;5072471;28;20044;-60
2023/09/22 01:09:09;;;;;;;7.63;4.38;;;14.20;99.90;;;;;;5072256;28;20098;-60
2023/09/22 01:11:35;;;;;;;9.00;5.00;;;14.20;99.90;;;;;;5072421;28;20530;-60
2023/09/22 01:14:02;;;;;;;7.95;4.80;;;14.10;99.90;;;;;;5072523;28;20048;-60
2023/09/22 01:16:29;;;;;;;9.18;5.40;;;14.20;99.90;;;;;;5070984;28;20098;-60
2023/09/22 01:18:55;;;;;;;9.77;5.45;;;14.20;99.90;;;;;;5072574;28;20048;-60
2023/09/22 01:21:34;;;;;;;10.25;6.18;;;14.10;99.90;;;;;;5070829;28;20480;-59
2023/09/22 01:24:00;;;;;;;11.50;6.47;;;14.20;99.90;;;;;;5072345;28;20052;-60
2023/09/22 01:26:26;;;;;;;12.95;7.32;;;14.10;99.90;;;;;;5072280;28;20526;-60
2023/09/22 01:28:52;;;;;;;11.23;7.07;;;14.10;99.90;;;;;;5072230;28;20049;-60
2023/09/22 01:31:18;;;;;;;12.20;7.25;;;14.10;99.90;;;;;;5072138;28;20041;-60
2023/09/22 01:33:47;;;;;;;12.88;7.72;;;14.00;99.90;;;;;;5072192;28;20047;-60
2023/09/22 01:36:16;;;;;;;13.55;8.13;;;14.00;99.90;;;;;;5072379;28;20121;-60
2023/09/22 01:38:42;;;;;;;13.10;8.48;;;14.10;99.90;;;;;;5071069;28;20036;-60
2023/09/22 01:41:07;;;;;;;15.60;8.88;;;14.00;99.90;;;;;;5072307;28;20806;-60
2023/09/22 01:43:35;;;;;;;14.82;8.82;;;14.00;99.90;;;;;;5072134;28;20201;-60
2023/09/22 01:46:00;;;;;;;14.15;8.55;;;14.10;99.90;;;;;;5072104;28;20098;-60
2023/09/22 01:48:26;;;;;;;14.70;9.60;;;14.20;99.90;;;;;;5072019;28;20078;-59
2023/09/22 01:50:52;;;;;;;14.20;9.13;;;14.20;99.90;;;;;;5072045;28;20366;-59
2023/09/22 01:53:18;;;;;;;17.42;10.00;;;14.10;99.90;;;;;;5071847;28;20489;-60
2023/09/22 01:55:45;;;;;;;16.25;11.02;;;14.20;99.90;;;;;;5071760;28;20044;-60
2023/09/22 01:58:11;;;;;;;16.13;10.55;;;14.10;99.90;;;;;;5071864;28;20496;-60
2023/09/22 02:00:38;;;;;;;15.52;10.68;;;14.00;99.90;;;;;;5072002;28;20047;-60
2023/09/22 02:03:08;;;;;;;17.52;11.38;;;14.00;99.90;;;;;;5071824;28;20041;-60
2023/09/22 02:05:34;;;;;;;17.92;11.43;;;14.10;99.90;;;;;;5072023;28;20159;-60
2023/09/22 02:08:00;;;;;;;18.08;11.80;;;14.10;99.90;;;;;;5071639;28;20049;-60
2023/09/22 02:10:26;;;;;;;17.90;11.55;;;14.00;99.90;;;;;;5071444;28;20113;-60
2023/09/22 02:12:52;;;;;;;20.55;13.73;;;14.00;99.90;;;;;;5071523;28;20048;-60
2023/09/22 02:15:18;;;;;;;19.27;12.73;;;14.00;99.90;;;;;;5071909;28;20079;-59
2023/09/22 02:17:46;;;;;;;20.90;14.15;;;14.10;99.90;;;;;;5070256;28;20076;-60
2023/09/22 02:20:22;;;;;;;22.00;14.65;;;14.10;99.90;;;;;;5074278;28;20041;-59
2023/09/22 02:22:49;;;;;;;24.52;15.95;;;14.10;99.90;;;;;;5075735;28;20044;-60
2023/09/22 02:25:15;;;;;;;27.95;16.73;;;14.00;99.90;;;;;;5075700;28;20097;-60
2023/09/22 02:27:42;;;;;;;25.48;16.77;;;14.00;99.90;;;;;;5075587;28;20136;-59
2023/09/22 02:30:08;;;;;;;25.75;16.90;;;14.10;99.90;;;;;;5075288;28;20080;-59
2023/09/22 02:32:35;;;;;;;27.85;18.23;;;14.00;99.90;;;;;;5075354;28;20055;-60
2023/09/22 02:35:00;;;;;;;27.33;17.60;;;14.00;99.90;;;;;;5075384;28;20044;-59
2023/09/22 02:37:27;;;;;;;29.33;18.73;;;14.00;99.90;;;;;;5075195;28;20567;-60
2023/09/22 02:39:53;;;;;;;26.90;18.02;;;14.00;99.90;;;;;;5075105;28;20500;-60
2023/09/22 02:42:18;;;;;;;27.75;18.15;;;14.00;99.90;;;;;;5075134;28;20041;-60
2023/09/22 02:44:44;;;;;;;28.35;18.58;;;13.90;99.90;;;;;;5075059;28;20037;-60
2023/09/22 02:47:10;;;;;;;27.05;17.38;;;13.90;99.90;;;;;;5075300;28;20028;-60
2023/09/22 02:49:36;;;;;;;28.38;19.00;;;13.90;99.90;;;;;;5075105;28;20098;-60
2023/09/22 02:52:02;;;;;;;27.92;18.77;;;13.90;99.90;;;;;;5075216;28;20484;-60
2023/09/22 02:54:29;;;;;;;27.27;18.10;;;13.90;99.90;;;;;;5074780;28;20052;-60
2023/09/22 02:56:55;;;;;;;26.40;17.00;;;13.90;99.90;;;;;;5073696;28;20127;-60
2023/09/22 02:59:22;;;;;;;27.63;16.60;;;13.80;99.90;;;;;;5075162;28;20140;-60
2023/09/22 03:01:48;;;;;;;26.50;17.88;;;13.80;99.90;;;;;;5074987;28;20366;-60
2023/09/22 03:04:14;;;;;;;25.25;16.73;;;13.80;99.90;;;;;;5074953;28;20052;-59
2023/09/22 03:06:40;;;;;;;26.67;16.88;;;13.70;99.90;;;;;;5074635;28;20037;-60
2023/09/22 03:09:09;;;;;;;27.23;16.45;;;13.80;99.90;;;;;;5073260;28;20048;-60
2023/09/22 03:11:35;;;;;;;23.40;15.15;;;13.70;99.90;;;;;;5074595;28;20047;-60
2023/09/22 03:14:03;;;;;;;26.48;16.05;;;13.70;99.90;;;;;;5074499;28;20049;-60
2023/09/22 03:16:29;;;;;;;21.48;13.85;;;13.70;99.90;;;;;;5074525;28;20042;-60
2023/09/22 03:18:58;;;;;;;22.58;14.57;;;13.70;99.90;;;;;;5073270;28;20439;-60
2023/09/22 03:21:24;;;;;;;23.80;13.85;;;13.60;99.90;;;;;;5074391;28;20068;-60
2023/09/22 03:23:50;;;;;;;23.55;13.45;;;13.60;99.90;;;;;;5074444;28;20080;-60
2023/09/22 03:26:18;;;;;;;20.45;13.15;;;13.70;99.90;;;;;;5074287;28;20400;-60
2023/09/22 03:28:47;;;;;;;21.73;14.27;;;13.70;99.90;;;;;;5074393;28;20052;-60
2023/09/22 03:31:13;;;;;;;21.55;13.23;;;13.60;99.90;;;;;;5074502;28;20087;-60
2023/09/22 03:33:41;;;;;;;22.17;13.48;;;13.70;99.90;;;;;;5074088;28;20080;-60
2023/09/22 03:36:12;;;;;;;20.55;12.05;;;13.70;99.90;;;;;;5074290;28;20119;-60
2023/09/22 03:38:38;;;;;;;20.05;12.25;;;13.70;99.90;;;;;;5074472;28;20037;-60
2023/09/22 03:41:04;;;;;;;19.55;11.80;;;13.60;99.90;;;;;;5074158;28;20041;-60
2023/09/22 03:43:30;;;;;;;19.52;10.85;;;13.60;99.90;;;;;;5074375;28;20427;-59
2023/09/22 03:45:56;;;;;;;16.42;9.93;;;13.80;99.90;;;;;;5074190;28;20056;-60
2023/09/22 03:48:22;;;;;;;17.58;10.43;;;13.70;99.90;;;;;;5074296;28;20630;-60
2023/09/22 03:50:48;;;;;;;17.33;10.07;;;13.70;99.90;;;;;;5073957;28;20041;-60
2023/09/22 03:53:14;;;;;;;17.65;10.27;;;13.80;99.90;;;;;;5073874;28;20033;-60
2023/09/22 03:55:40;;;;;;;17.48;9.85;;;13.70;99.90;;;;;;5072777;28;20777;-60
2023/09/22 03:58:06;;;;;;;15.32;8.95;;;13.70;99.90;;;;;;5073840;28;20120;-60
2023/09/22 04:00:32;;;;;;;17.33;9.57;;;13.70;99.90;;;;;;5073793;28;20044;-60
2023/09/22 04:02:59;;;;;;;16.50;9.30;;;13.70;99.90;;;;;;5073656;28;20044;-60
2023/09/22 04:05:26;;;;;;;17.48;9.73;;;13.70;99.90;;;;;;5073549;28;20098;-59
2023/09/22 04:07:54;;;;;;;15.23;9.05;;;13.70;99.90;;;;;;5073790;28;20075;-59
2023/09/22 04:10:20;;;;;;;19.10;9.93;;;13.70;99.90;;;;;;5073460;28;20048;-58
2023/09/22 04:12:46;;;;;;;18.65;10.20;;;13.60;99.90;;;;;;5073748;28;20040;-60
2023/09/22 04:15:12;;;;;;;17.90;10.50;;;13.70;99.90;;;;;;5073574;28;20055;-60
2023/09/22 04:17:40;;;;;;;16.67;9.65;;;13.60;99.90;;;;;;5073209;28;20036;-60
2023/09/22 04:20:08;;;;;;;15.70;10.07;;;13.60;99.90;;;;;;5073413;28;20396;-60
2023/09/22 04:22:37;;;;;;;17.48;10.43;;;13.50;99.90;;;;;;5073151;28;20247;-59
2023/09/22 04:25:10;;;;;;;19.98;10.65;;;13.60;99.90;;;;;;5071922;28;20049;-59
2023/09/22 04:27:43;;;;;;;17.70;10.63;;;13.50;99.90;;;;;;5072949;28;20477;-59
2023/09/22 04:30:15;;;;;;;16.65;10.13;;;13.40;99.90;;;;;;5073400;28;20055;-60
2023/09/22 04:32:42;;;;;;;19.65;10.73;;;13.40;99.90;;;;;;5072960;28;20055;-60
2023/09/22 04:35:09;;;;;;;18.20;11.00;;;13.40;99.90;;;;;;5072947;28;20051;-60
2023/09/22 04:37:35;;;;;;;20.55;12.18;;;13.40;99.90;;;;;;5073103;28;20043;-60
2023/09/22 04:40:03;;;;;;;20.27;11.20;;;13.40;99.90;;;;;;5073046;28;20115;-60
2023/09/22 04:42:29;;;;;;;19.60;11.93;;;13.50;99.90;;;;;;5072650;28;20377;-60
2023/09/22 04:44:55;;;;;;;20.20;12.40;;;13.50;99.90;;;;;;5073042;28;20040;-60
2023/09/22 04:47:21;;;;;;;23.48;13.00;;;13.40;99.90;;;;;;5073059;28;20044;-60
2023/09/22 04:49:46;;;;;;;22.27;13.32;;;13.50;99.90;;;;;;5071322;28;20042;-60
2023/09/22 04:52:12;;;;;;;23.55;13.63;;;13.40;99.90;;;;;;5072833;28;20090;-60
2023/09/22 04:54:40;;;;;;;21.60;13.05;;;13.40;99.90;;;;;;5072721;28;20044;-60
2023/09/22 04:57:05;;;;;;;23.00;13.13;;;13.50;99.90;;;;;;5072518;28;20051;-60
2023/09/22 04:59:31;;;;;;;23.50;13.48;;;13.50;99.90;;;;;;5072430;28;20044;-60
2023/09/22 05:01:57;;;;;;;25.75;13.35;;;13.50;99.90;;;;;;5072459;28;20056;-60
2023/09/22 05:04:23;;;;;;;24.13;13.68;;;13.50;99.90;;;;;;5072598;28;20400;-60
2023/09/22 05:06:50;;;;;;;23.02;14.45;;;13.40;99.90;;;;;;5072672;28;20111;-59
2023/09/22 05:09:16;;;;;;;28.85;16.73;;;13.40;99.90;;;;;;5072213;28;20059;-60
2023/09/22 05:11:41;;;;;;;27.75;16.90;;;13.40;99.90;;;;;;5072439;28;20131;-60
2023/09/22 05:14:07;;;;;;;30.13;17.83;;;13.50;99.90;;;;;;5072216;28;20055;-59
2023/09/22 05:16:33;;;;;;;32.70;17.55;;;13.40;99.90;;;;;;5072341;28;20071;-59
2023/09/22 05:19:02;;;;;;;31.42;18.40;;;13.50;99.90;;;;;;5072222;28;20040;-60
2023/09/22 05:21:28;;;;;;;31.15;18.70;;;13.30;99.90;;;;;;5072507;28;20438;-60
2023/09/22 05:23:54;;;;;;;32.85;20.23;;;13.30;99.90;;;;;;5072208;28;20181;-60
2023/09/22 05:26:20;;;;;;;30.38;19.30;;;13.40;99.90;;;;;;5072274;28;20041;-60
2023/09/22 05:28:46;;;;;;;32.60;19.88;;;13.50;99.90;;;;;;5072080;28;20044;-60
2023/09/22 05:31:12;;;;;;;34.17;21.27;;;13.40;99.90;;;;;;5072332;28;20052;-59
2023/09/22 05:33:38;;;;;;;32.25;19.38;;;13.30;99.90;;;;;;5072188;28;20044;-60
2023/09/22 05:36:05;;;;;;;32.95;19.25;;;13.30;99.90;;;;;;5072019;28;20075;-59
2023/09/22 05:38:30;;;;;;;28.65;17.70;;;13.40;99.90;;;;;;5072338;28;20040;-60
2023/09/22 05:40:56;;;;;;;29.83;18.33;;;13.40;99.90;;;;;;5072153;28;20476;-60
2023/09/22 05:43:22;;;;;;;31.73;16.98;;;13.50;99.90;;;;;;5072066;28;20052;-60
2023/09/22 05:45:54;;;;;;;27.02;17.27;;;13.40;99.90;;;;;;5071962;28;20481;-60
2023/09/22 05:48:21;;;;;;;;;;;13.30;99.90;;;;;;5072279;28;20489;-60
2023/09/22 05:50:56;;;;;;;29.10;16.77;;;13.40;99.90;;;;;;5072098;28;19940;-59
2023/09/22 05:53:21;;;;;;;26.50;15.75;;;13.40;99.90;;;;;;5072119;28;20613;-59
2023/09/22 05:55:47;;;;;;;30.38;18.05;;;13.30;99.90;;;;;;5074622;28;20090;-59
2023/09/22 05:58:13;;;;;;;29.08;16.80;;;13.30;99.90;;;;;;5076173;28;20039;-60
2023/09/22 06:00:39;;;;;;;28.15;17.40;;;13.40;99.90;;;;;;5075954;28;20040;-60
2023/09/22 06:03:05;;;;;;;29.10;16.75;;;13.30;99.90;;;;;;5076136;28;20115;-59
2023/09/22 06:05:31;;;;;;;28.08;18.25;;;13.30;99.90;;;;;;5075887;28;20485;-60
2023/09/22 06:07:59;;;;;;;28.23;17.35;;;13.30;99.90;;;;;;5075858;28;20101;-60
2023/09/22 06:10:24;;;;;;;27.25;16.60;;;13.30;99.90;;;;;;5074258;28;20067;-59
2023/09/22 06:12:50;;;;;;;33.88;18.33;;;13.30;99.90;;;;;;5075655;28;20040;-60
2023/09/22 06:15:16;;;;;;;32.15;19.02;;;13.30;99.90;;;;;;5075781;28;20047;-60
2023/09/22 06:17:42;;;;;;;33.42;19.70;;;13.20;99.90;;;;;;5074433;28;20079;-60
2023/09/22 06:20:17;;;;;;;32.08;19.23;;;13.20;99.90;;;;;;5075620;28;20048;-60
2023/09/22 06:22:43;;;;;;;33.05;19.08;;;13.30;99.90;;;;;;5075560;28;20053;-60
2023/09/22 06:25:09;;;;;;;33.97;19.23;;;13.20;99.90;;;;;;5075487;28;20124;-60
2023/09/22 06:27:35;;;;;;;32.40;19.30;;;13.20;99.90;;;;;;5075350;28;20123;-60
2023/09/22 06:30:03;;;;;;;31.50;18.05;;;13.30;99.90;;;;;;5075716;28;20115;-60
2023/09/22 06:32:28;;;;;;;34.40;18.45;;;13.30;99.90;;;;;;5075273;28;20489;-60
2023/09/22 06:34:55;;;;;;;33.42;19.25;;;13.20;99.90;;;;;;5074139;28;20043;-60
2023/09/22 06:37:21;;;;;;;35.92;20.05;;;13.20;99.90;;;;;;5075239;28;20040;-60
2023/09/22 06:39:47;;;;;;;33.13;18.83;;;13.20;99.90;;;;;;5075473;28;20178;-59
2023/09/22 06:42:12;;;;;;;34.10;18.85;;;13.20;99.90;;;;;;5075142;28;20166;-60
2023/09/22 06:44:38;;;;;;;32.72;18.15;;;13.30;99.90;;;;;;5075335;28;20041;-60
2023/09/22 06:47:05;;;;;;;34.67;18.75;;;13.20;99.90;;;;;;5075117;28;20052;-59
2023/09/22 06:49:33;;;;;;;35.40;19.13;;;13.20;99.90;;;;;;5073799;28;20036;-60
2023/09/22 06:51:59;;;;;;;33.53;18.27;;;13.20;99.90;;;;;;5074984;28;20040;-60
2023/09/22 06:54:26;;;;;;;34.20;20.50;;;13.20;99.90;;;;;;5075134;28;20392;-60
2023/09/22 06:56:52;;;;;;;32.80;19.33;;;13.20;99.90;;;;;;5073588;28;20044;-60
2023/09/22 06:59:21;;;;;;;33.72;19.25;;;13.20;99.90;;;;;;5074813;28;20048;-60
2023/09/22 07:01:47;;;;;;;32.92;18.02;;;13.20;99.90;;;;;;5073601;28;20110;-60
2023/09/22 07:04:13;;;;;;;37.38;19.42;;;13.30;99.90;;;;;;5075046;28;20048;-59
2023/09/22 07:06:39;;;;;;;33.58;18.48;;;13.30;99.90;;;;;;5074514;28;20037;-60
2023/09/22 07:09:09;;;;;;;32.70;18.45;;;13.40;99.90;;;;;;5074668;28;20118;-59
2023/09/22 07:11:40;;;;;;;35.13;19.10;;;13.50;99.90;;;;;;5074914;28;20075;-59
2023/09/22 07:14:09;;;;;;;36.58;20.02;;;13.50;99.90;;;;;;5074486;28;20511;-60
2023/09/22 07:16:35;;;;;;;35.38;19.90;;;13.50;99.90;;;;;;5074725;28;20551;-60
2023/09/22 07:19:01;;;;;;;32.65;17.73;;;13.50;99.90;;;;;;5074466;28;20128;-60
2023/09/22 07:21:27;;;;;;;34.10;18.63;;;13.40;99.90;;;;;;5074398;28;20072;-60
2023/09/22 07:23:54;;;;;;;30.63;16.75;;;13.50;99.90;;;;;;5074350;28;20049;-60
2023/09/22 07:26:20;;;;;;;31.70;18.10;;;13.40;99.90;;;;;;5073140;28;20492;-60
2023/09/22 07:28:46;;;;;;;30.35;17.55;;;13.60;99.90;;;;;;5074321;28;20052;-60
2023/09/22 07:31:28;;;;;;;30.02;16.33;;;13.50;99.90;;;;;;5073867;28;20618;-60
2023/09/22 07:33:53;;;;;;;30.70;16.92;;;13.40;99.90;;;;;;5074140;28;20040;-59
2023/09/22 07:36:19;;;;;;;29.60;15.48;;;13.40;99.90;;;;;;5074212;28;20059;-60
2023/09/22 07:38:45;;;;;;;26.63;15.30;;;13.50;99.90;;;;;;5074313;28;20035;-60
2023/09/22 07:41:11;;;;;;;25.50;15.27;;;13.50;99.90;;;;;;5074163;28;20036;-60
2023/09/22 07:43:36;;;;;;;28.50;14.70;;;13.50;99.90;;;;;;5074232;28;20055;-60
2023/09/22 07:46:04;;;;;;;28.33;14.82;;;13.60;99.90;;;;;;5074151;28;20049;-60
2023/09/22 07:48:30;;;;;;;26.45;14.93;;;13.50;99.90;;;;;;5073970;28;20047;-60
2023/09/22 07:50:57;;;;;;;25.98;14.75;;;13.50;99.90;;;;;;5074216;28;20044;-60
2023/09/22 07:53:25;;;;;;;23.50;14.75;;;13.60;99.90;;;;;;5073793;28;20058;-60
2023/09/22 07:55:55;;;;;;;22.98;14.05;;;13.60;99.90;;;;;;5074095;28;20367;-60
2023/09/22 07:58:24;;;;;;;20.92;13.23;;;13.60;99.90;;;;;;5073829;28;20045;-60
2023/09/22 08:00:52;;;;;;;23.58;13.00;;;13.50;99.90;;;;;;5073732;28;20072;-60
2023/09/22 08:03:21;;;;;;;20.65;11.68;;;13.60;99.90;;;;;;5073891;28;20048;-60
2023/09/22 08:05:50;;;;;;;22.58;12.88;;;13.60;99.90;;;;;;5073808;28;20400;-60
2023/09/22 08:08:17;;;;;;;18.27;11.90;;;13.60;99.90;;;;;;5073526;28;20434;-59
2023/09/22 08:10:43;;;;;;;22.13;12.27;;;13.60;99.90;;;;;;5073255;28;20052;-60
2023/09/22 08:13:09;;;;;;;16.95;10.95;;;13.60;99.90;;;;;;5073355;28;20041;-60
2023/09/22 08:15:38;;;;;;;22.63;12.07;;;13.60;99.90;;;;;;5073741;28;20043;-59
2023/09/22 08:18:10;;;;;;;23.40;11.50;;;13.60;99.90;;;;;;5072755;28;20076;-60
2023/09/22 08:20:36;;;;;;;22.77;11.93;;;13.60;99.90;;;;;;5073583;28;20037;-60
2023/09/22 08:23:02;;;;;;;20.38;11.27;;;13.60;99.90;;;;;;5073500;28;20048;-60
2023/09/22 08:25:28;;;;;;;21.50;12.20;;;13.60;99.90;;;;;;5073279;28;20115;-60
2023/09/22 08:27:56;;;;;;;22.60;12.68;;;13.70;99.90;;;;;;5073210;28;20053;-59
2023/09/22 08:30:23;;;;;;;22.10;11.55;;;13.70;99.90;;;;;;5073486;28;20052;-60
2023/09/22 08:32:50;;;;;;;18.20;11.65;;;13.70;99.90;;;;;;5073001;28;20037;-60
2023/09/22 08:35:18;;;;;;;17.45;11.10;;;13.80;99.90;;;;;;5073225;28;20418;-60
2023/09/22 08:37:44;;;;;;;18.23;11.20;;;13.70;99.90;;;;;;5072977;28;20040;-60
2023/09/22 08:40:15;;;;;;;17.73;11.23;;;13.80;99.90;;;;;;5071902;28;20447;-61
2023/09/22 08:42:45;;;;;;;20.63;10.50;;;13.80;99.90;;;;;;5072927;28;20052;-60
2023/09/22 08:45:12;;;;;;;17.13;10.85;;;13.90;99.90;;;;;;5072753;28;20120;-60
2023/09/22 08:47:40;;;;;;;16.55;11.27;;;13.90;99.90;;;;;;5072764;28;20051;-60
2023/09/22 08:50:16;;;;;;;19.23;10.98;;;13.90;99.90;;;;;;5072676;28;20040;-60
2023/09/22 08:52:49;;;;;;;19.27;11.88;;;13.90;99.90;;;;;;5072802;28;20041;-60
2023/09/22 08:55:15;;;;;;;18.98;11.07;;;14.00;99.90;;;;;;5072569;28;20515;-60
2023/09/22 08:57:45;;;;;;;16.77;11.40;;;14.00;99.90;;;;;;5072545;28;20066;-60
2023/09/22 09:00:23;;;;;;;16.75;11.32;;;14.10;99.90;;;;;;5073146;28;20390;-60
2023/09/22 09:02:51;;;;;;;15.55;10.32;;;14.20;99.90;;;;;;5072888;28;20043;-60
2023/09/22 09:05:19;;;;;;;19.95;11.43;;;14.20;99.90;;;;;;5071262;28;20496;-60
2023/09/22 09:07:45;;;;;;;16.92;11.05;;;14.20;99.90;;;;;;5072657;28;20052;-60
2023/09/22 09:10:11;;;;;;;16.60;12.02;;;14.40;99.90;;;;;;5072096;28;20519;-60
2023/09/22 09:12:44;;;;;;;20.88;12.25;;;14.40;99.90;;;;;;5072548;28;20127;-60
2023/09/22 09:15:10;;;;;;;15.82;11.05;;;14.50;99.90;;;;;;5072452;28;20496;-60
2023/09/22 09:17:36;;;;;;;16.38;10.90;;;14.50;99.90;;;;;;5072412;28;20037;-59
2023/09/22 09:20:04;;;;;;;14.85;10.93;;;14.50;99.90;;;;;;5072637;28;20090;-59
2023/09/22 09:22:37;;;;;;;14.00;8.95;;;14.50;99.90;;;;;;5072324;28;20051;-60
2023/09/22 09:25:03;;;;;;;13.38;9.27;;;14.50;99.90;;;;;;5072269;28;20048;-60
2023/09/22 09:27:31;;;;;;;14.35;8.75;;;14.60;99.90;;;;;;5072100;28;20040;-60
2023/09/22 09:29:57;;;;;;;12.18;7.30;;;14.70;99.90;;;;;;5071981;28;20051;-60
2023/09/22 09:32:29;;;;;;;11.25;7.15;;;14.60;99.40;;;;;;5072125;28;20060;-60
2023/09/22 09:34:55;;;;;;;11.93;7.35;;;14.80;99.90;;;;;;5072061;28;20090;-60
2023/09/22 09:37:21;;;;;;;14.20;8.23;;;14.90;99.90;;;;;;5071129;28;20048;-60
2023/09/22 09:39:56;;;;;;;12.90;7.28;;;14.90;99.90;;;;;;5072074;28;20492;-60
2023/09/22 09:42:24;;;;;;;11.63;6.97;;;15.00;99.90;;;;;;5072212;28;20043;-60
2023/09/22 09:44:54;;;;;;;12.05;7.47;;;15.30;99.90;;;;;;5071058;28;20055;-60
2023/09/22 09:47:34;;;;;;;10.27;6.40;;;15.40;99.90;;;;;;5072058;28;20416;-59
2023/09/22 09:50:04;;;;;;;10.35;6.20;;;15.40;95.10;;;;;;5072093;28;20094;-60
2023/09/22 09:52:53;;;;;;;9.45;5.85;;;15.30;87.20;;;;;;5072077;28;20112;-60
2023/09/22 09:55:20;;;;;;;10.48;5.47;;;15.20;84.30;;;;;;5071975;28;20037;-60
2023/09/22 09:57:46;;;;;;;8.18;5.20;;;15.20;88.70;;;;;;5071760;28;20036;-60
2023/09/22 10:00:19;;;;;;;7.90;4.80;;;15.00;73.00;;;;;;5071959;28;20037;-60
2023/09/22 10:02:49;;;;;;;6.80;4.53;;;15.20;76.50;;;;;;5070593;28;20040;-60
2023/09/22 10:05:19;;;;;;;6.88;4.03;;;15.20;57.90;;;;;;5071999;28;20119;-60
2023/09/22 10:07:46;;;;;;;8.38;3.35;;;15.40;82.90;;;;;;5071870;28;20052;-60
2023/09/22 10:10:14;;;;;;;9.02;3.13;;;15.30;49.50;;;;;;5071565;28;20061;-60
2023/09/22 10:12:40;;;;;;;5.40;2.58;;;15.20;29.50;;;;;;5071888;28;20048;-60
2023/09/22 10:15:07;;;;;;;6.65;2.60;;;15.20;30.10;;;;;;5071588;28;20036;-60
2023/09/22 10:17:35;;;;;;;5.68;2.25;;;15.10;21.70;;;;;;5071942;28;20029;-60
2023/09/22 10:20:06;;;;;;;4.28;2.20;;;15.10;15.70;;;;;;5071817;28;20063;-61
2023/09/22 10:22:33;;;;;;;5.88;2.20;;;15.20;28.00;;;;;;5071955;28;20051;-61
2023/09/22 10:25:13;;;;;;;5.45;2.10;;;15.40;31.40;;;;;;5071635;28;20051;-60
2023/09/22 10:28:01;;;;;;;5.47;2.40;;;15.30;11.60;;;;;;5071373;28;20044;-60
2023/09/22 10:30:51;;;;;;;5.00;1.98;;;15.30;10.90;;;;;;5071535;28;20037;-60
2023/09/22 10:33:22;;;;;;;4.97;2.30;;;15.50;24.00;;;;;;5068292;28;20092;-60
2023/09/22 10:35:49;;;;;;;4.72;2.10;;;15.60;15.20;;;;;;5071747;28;20392;-60
2023/09/22 10:38:15;;;;;;;4.35;1.80;;;15.90;21.20;;;;;;5070209;28;20130;-61
2023/09/22 10:40:59;;;;;;;5.45;2.05;;;16.00;9.70;;;;;;5073354;28;20072;-61
2023/09/22 10:43:34;;;;;;;4.53;1.90;;;15.80;1.00;;;;;;5075165;28;20083;-60
2023/09/22 10:46:00;;;;;;;7.93;2.10;;;15.80;1.00;;;;;;5075385;28;20040;-60
2023/09/22 10:48:37;;;;;;;4.80;2.38;;;15.80;5.80;;;;;;5075195;28;20051;-61
2023/09/22 10:51:06;;;;;;;4.30;1.80;;;15.90;6.00;;;;;;5073692;28;20048;-60
2023/09/22 10:53:34;;;;;;;6.35;2.00;;;15.90;1.00;;;;;;5075007;28;20055;-61
2023/09/22 10:56:05;;;;;;;5.07;2.58;;;16.00;3.00;;;;;;5075032;28;20044;-60
2023/09/22 10:58:31;;;;;;;3.05;1.55;;;16.20;2.40;;;;;;5074725;28;20039;-60
2023/09/22 11:01:04;;;;;;;4.32;1.83;;;16.10;1.00;;;;;;5075025;28;20036;-60
2023/09/22 11:03:35;;;;;;;4.82;1.77;;;16.40;2.70;;;;;;5074987;28;20123;-60
2023/09/22 11:06:03;;;;;;;6.18;2.20;;;16.40;1.00;;;;;;5074897;28;20044;-60
2023/09/22 11:08:29;;;;;;;5.30;2.15;;;16.20;1.00;;;;;;5074711;28;20492;-60
2023/09/22 11:10:56;;;;;;;4.47;1.90;;;16.10;1.00;;;;;;5073289;28;20052;-60
2023/09/22 11:13:23;;;;;;;4.25;2.30;;;16.10;1.00;;;;;;5074923;28;20123;-60
2023/09/22 11:15:49;;;;;;;4.50;1.80;;;16.20;1.00;;;;;;5074787;28;20571;-60
2023/09/22 11:18:35;;;;;;;4.85;1.67;;;16.40;1.00;;;;;;5074671;28;20058;-60
2023/09/22 11:21:04;;;;;;;4.57;1.88;;;16.50;1.00;;;;;;5073535;28;20542;-61
2023/09/22 11:23:31;;;;;;;7.93;2.20;;;16.70;1.00;;;;;;5074420;28;20044;-60
2023/09/22 11:25:59;;;;;;;5.18;1.83;;;16.70;1.00;;;;;;5074577;28;20041;-60
2023/09/22 11:28:26;;;;;;;4.28;1.77;;;16.80;1.00;;;;;;5074571;28;20119;-60
2023/09/22 11:30:53;;;;;;;6.43;1.95;;;16.80;1.00;;;;;;5074061;28;20124;-60
2023/09/22 11:33:19;;;;;;;5.10;1.92;;;16.70;1.00;;;;;;5074204;28;20106;-60
2023/09/22 11:35:47;;;;;;;3.15;1.65;;;16.60;1.00;;;;;;5074295;28;20095;-60
2023/09/22 11:38:27;;;;;;;4.78;1.98;;;16.60;1.00;;;;;;5074404;28;20053;-60
2023/09/22 11:41:13;;;;;;;4.82;2.10;;;17.00;1.00;;;;;;5074236;28;20048;-60
2023/09/22 11:43:40;;;;;;;4.80;1.85;;;16.80;1.00;;;;;;5074368;28;20051;-60
2023/09/22 11:46:06;;;;;;;6.07;2.03;;;16.80;1.00;;;;;;5074010;28;20076;-60
2023/09/22 11:48:31;;;;;;;4.30;1.77;;;16.80;1.00;;;;;;5074080;28;20083;-60
2023/09/22 11:50:57;;;;;;;4.78;2.13;;;16.70;1.00;;;;;;5073714;28;20455;-60
2023/09/22 11:53:27;;;;;;;4.65;2.20;;;16.80;1.00;;;;;;5073022;28;20044;-60
2023/09/22 11:55:52;;;;;;;3.63;1.95;;;17.00;1.00;;;;;;5073990;28;20047;-60
2023/09/22 11:58:18;;;;;;;5.07;1.90;;;17.10;1.00;;;;;;5072514;28;20037;-61
2023/09/22 12:00:45;;;;;;;5.07;1.98;;;17.20;1.00;;;;;;5073628;28;20035;-60
2023/09/22 12:03:10;;;;;;;4.53;1.95;;;17.10;1.00;;;;;;5073586;28;20037;-60
2023/09/22 12:05:39;;;;;;;5.53;2.10;;;17.00;1.00;;;;;;5073905;28;20040;-61
2023/09/22 12:08:08;;;;;;;3.72;1.45;;;16.80;1.00;;;;;;5073929;28;20067;-60
2023/09/22 12:10:34;;;;;;;6.43;1.85;;;16.90;1.00;;;;;;5073437;28;20508;-60
2023/09/22 12:13:00;;;;;;;5.15;1.83;;;16.70;1.00;;;;;;5073441;28;20045;-48
2023/09/22 12:15:25;;;;;;;4.18;1.73;;;16.80;1.00;;;;;;5073741;28;20062;-46
2023/09/22 12:17:51;;;;;;;4.60;1.50;;;16.80;1.00;;;;;;5073330;28;20419;-46
2023/09/22 12:20:17;;;;;;;5.25;2.00;;;16.80;1.00;;;;;;5073525;28;20126;-46
2023/09/22 12:22:42;;;;;;;3.22;1.50;;;16.50;1.00;;;;;;5073645;28;20051;-60
2023/09/22 12:25:08;;;;;;;3.85;1.80;;;16.70;1.00;;;;;;5073287;28;20032;-60
2023/09/22 12:27:34;;;;;;;5.03;1.75;;;16.80;1.00;;;;;;5073164;28;20115;-60
2023/09/22 12:30:00;;;;;;;5.45;2.10;;;17.00;1.00;;;;;;5073247;28;20036;-60
2023/09/22 12:32:25;;;;;;;4.03;1.80;;;16.80;1.00;;;;;;5073252;28;20393;-48
2023/09/22 12:34:52;;;;;;;3.20;1.63;;;17.20;1.00;;;;;;5073009;28;20123;-47
2023/09/22 12:37:18;;;;;;;5.00;2.00;;;17.10;1.00;;;;;;5073205;28;20059;-51